Time;durP1;ratioP1;P1;durP2;ratioP2;P2;SDS_P1;SDS_P2;PMS_P1;PMS_P2;Temp;Humidity;BMP_temperature;BMP_pressure;BME280_temperature;BME280_humidity;BME280_pressure;Samples;Min_cycle;Max_cycle;Signal;HPM_P1;HPM_P2
2021/05/13 00:01:21;;;;;;;4.15;3.10;;;;;;;19.35;32.99;100728.31;4974263;28;20552;-75
2021/05/13 00:03:52;;;;;;;3.80;2.92;;;;;;;19.47;32.97;100736.41;4974194;28;20464;-75
2021/05/13 00:06:17;;;;;;;7.00;3.05;;;;;;;19.50;32.77;100721.81;4973679;28;20413;-75
2021/05/13 00:08:43;;;;;;;5.10;2.83;;;;;;;19.41;32.96;100730.38;4972732;28;20031;-75
2021/05/13 00:11:10;;;;;;;6.55;3.30;;;;;;;19.38;32.70;100728.34;4973869;28;20027;-75
2021/05/13 00:13:38;;;;;;;6.70;2.63;;;;;;;19.46;32.76;100728.47;4973901;28;20026;-75
2021/05/13 00:16:05;;;;;;;4.45;2.70;;;;;;;19.36;32.91;100732.69;4973988;28;20049;-76
2021/05/13 00:18:32;;;;;;;3.90;2.70;;;;;;;19.33;32.80;100733.41;4973497;28;20023;-75
2021/05/13 00:20:58;;;;;;;5.22;2.78;;;;;;;19.41;32.77;100733.13;4973776;28;20260;-75
2021/05/13 00:23:24;;;;;;;3.63;3.08;;;;;;;19.38;32.85;100739.44;4973974;28;20022;-76
2021/05/13 00:25:51;;;;;;;4.15;2.90;;;;;;;18.99;33.33;100738.03;4972471;28;20060;-76
2021/05/13 00:28:23;;;;;;;4.97;2.75;;;;;;;18.87;33.61;100736.22;4973893;28;20453;-79
2021/05/13 00:30:49;;;;;;;4.20;2.78;;;;;;;18.82;33.57;100740.13;4973780;28;20027;-75
2021/05/13 00:33:15;;;;;;;5.47;3.20;;;;;;;18.84;33.77;100743.31;4973820;28;20023;-76
2021/05/13 00:35:41;;;;;;;6.75;3.17;;;;;;;18.87;33.82;100746.50;4973882;28;20026;-79
2021/05/13 00:38:07;;;;;;;4.80;3.63;;;;;;;18.88;33.78;100746.13;4973835;28;20077;-75
2021/05/13 00:40:34;;;;;;;4.10;2.70;;;;;;;18.85;33.67;100739.38;4973678;28;20058;-76
2021/05/13 00:43:01;;;;;;;4.95;3.20;;;;;;;18.91;33.54;100742.63;4973456;28;20501;-75
2021/05/13 00:45:27;;;;;;;6.30;2.92;;;;;;;19.00;33.44;100745.16;4973670;28;20027;-76
2021/05/13 00:50:21;;;;;;;4.88;3.05;;;;;;;19.00;33.62;100742.38;4973604;28;20409;-80
2021/05/13 00:52:48;;;;;;;3.72;2.83;;;;;;;18.84;33.73;100746.06;4973723;28;20057;-77
2021/05/13 00:55:16;;;;;;;5.63;3.17;;;;;;;18.83;33.67;100743.69;4973621;28;20362;-76
2021/05/13 00:57:45;;;;;;;5.18;3.70;;;;;;;18.80;33.72;100750.75;4974843;28;20034;-76
2021/05/13 01:02:57;;;;;;;5.68;3.50;;;;;;;18.71;33.53;100752.94;4977475;28;20366;-75
2021/05/13 01:05:24;;;;;;;6.20;3.60;;;;;;;18.50;33.82;100761.63;4976697;28;20077;-75
2021/05/13 01:07:50;;;;;;;4.38;3.40;;;;;;;18.45;33.54;100753.63;4977311;28;20031;-76
2021/05/13 01:10:17;;;;;;;5.32;3.50;;;;;;;18.24;33.75;100759.53;4977249;28;20030;-76
2021/05/13 01:12:44;;;;;;;5.38;3.05;;;;;;;18.24;33.73;100756.78;4977155;28;20033;-75
2021/05/13 01:20:39;;;;;;;6.10;3.65;;;;;;;18.22;33.83;100745.28;4968632;28;20066;-75
2021/05/13 01:23:07;;;;;;;4.95;3.20;;;;;;;18.27;34.11;100752.47;4976783;28;20081;-75
2021/05/13 01:25:41;;;;;;;4.80;2.90;;;;;;;18.25;34.09;100752.84;4975522;28;20093;-75
2021/05/13 01:28:07;;;;;;;3.80;2.80;;;;;;;18.30;34.06;100752.56;4976302;28;20383;-75
2021/05/13 01:30:32;;;;;;;5.07;3.08;;;;;;;18.29;33.72;100750.16;4976952;28;20117;-76
2021/05/13 01:32:59;;;;;;;5.45;3.50;;;;;;;18.29;34.14;100752.91;4976863;28;20069;-75
2021/05/13 01:35:25;;;;;;;4.82;3.28;;;;;;;18.30;34.08;100754.53;4976392;28;20117;-75
2021/05/13 01:38:06;;;;;;;5.00;3.38;;;;;;;18.23;33.97;100751.59;4975605;28;20513;-75
2021/05/13 01:40:32;;;;;;;4.18;3.17;;;;;;;18.22;33.89;100750.81;4976713;28;20030;-76
2021/05/13 01:42:57;;;;;;;5.47;2.70;;;;;;;18.17;33.91;100756.63;4974329;28;20027;-78
2021/05/13 01:45:23;;;;;;;3.85;2.58;;;;;;;18.13;33.72;100747.44;4978763;28;20031;-75
2021/05/13 01:47:48;;;;;;;3.28;2.70;;;;;;;18.06;33.82;100752.84;4976451;28;20113;-75
2021/05/13 01:50:14;;;;;;;5.97;3.05;;;;;;;18.03;33.83;100748.03;4976679;28;20438;-75
2021/05/13 01:52:40;;;;;;;5.65;3.67;;;;;;;18.00;33.72;100759.81;4976088;28;20062;-75
2021/05/13 01:55:06;;;;;;;7.53;3.63;;;;;;;18.07;33.69;100751.69;4976394;28;20027;-78
2021/05/13 01:57:32;;;;;;;4.70;3.40;;;;;;;18.09;33.67;100751.31;4976481;28;20038;-77
2021/05/13 01:59:57;;;;;;;16.30;3.92;;;;;;;18.06;33.67;100746.50;4976355;28;20113;-75
2021/05/13 02:02:23;;;;;;;3.92;3.45;;;;;;;18.05;33.57;100744.91;4976183;28;20478;-75
2021/05/13 02:04:49;;;;;;;4.68;3.33;;;;;;;18.01;33.63;100751.16;4975487;28;20042;-75
2021/05/13 02:07:14;;;;;;;4.13;3.10;;;;;;;17.99;33.61;100752.69;4976131;28;20031;-81
2021/05/13 02:09:41;;;;;;;4.43;3.72;;;;;;;17.98;33.58;100751.88;4975883;28;20026;-75
2021/05/13 02:12:08;;;;;;;4.60;3.30;;;;;;;18.00;33.79;100751.53;4976142;28;20102;-75
2021/05/13 02:14:34;;;;;;;4.95;3.60;;;;;;;18.03;33.70;100753.56;4975897;28;20022;-75
2021/05/13 02:16:59;;;;;;;5.53;3.63;;;;;;;18.08;33.68;100747.75;4975968;28;20031;-75
2021/05/13 02:19:25;;;;;;;9.63;4.03;;;;;;;18.04;33.79;100746.88;4976034;28;20034;-75
2021/05/13 02:21:50;;;;;;;4.25;3.47;;;;;;;18.08;33.74;100760.78;4976022;28;20034;-75
2021/05/13 02:24:16;;;;;;;4.45;3.72;;;;;;;18.09;33.73;100754.06;4975932;28;20030;-81
2021/05/13 02:26:42;;;;;;;4.82;3.00;;;;;;;18.13;33.82;100754.94;4975891;28;20041;-80
2021/05/13 02:29:07;;;;;;;6.38;3.40;;;;;;;18.03;33.63;100756.31;4975931;28;20109;-75
2021/05/13 02:31:33;;;;;;;5.38;3.60;;;;;;;18.07;33.74;100750.88;4975761;28;20031;-80
2021/05/13 02:33:58;;;;;;;4.50;3.17;;;;;;;18.15;33.83;100753.44;4975704;28;20038;-75
2021/05/13 02:36:24;;;;;;;4.93;3.42;;;;;;;18.21;33.78;100748.38;4975687;28;20177;-76
2021/05/13 02:38:50;;;;;;;4.03;3.17;;;;;;;18.37;33.37;100745.56;4975310;28;20030;-77
2021/05/13 02:41:15;;;;;;;4.72;3.60;;;;;;;18.37;33.31;100743.59;4974390;28;20053;-76
2021/05/13 02:43:41;;;;;;;6.47;4.38;;;;;;;18.19;33.82;100745.19;4975661;28;20035;-75
2021/05/13 02:46:06;;;;;;;4.88;3.90;;;;;;;18.24;33.99;100742.16;4975450;28;20065;-75
2021/05/13 02:48:32;;;;;;;4.90;3.55;;;;;;;18.27;33.89;100753.25;4975422;28;20026;-75
2021/05/13 02:50:57;;;;;;;5.60;4.00;;;;;;;18.32;33.75;100745.84;4975459;28;20035;-75
2021/05/13 02:53:23;;;;;;;4.30;3.65;;;;;;;18.32;33.86;100748.63;4975386;28;20038;-75
2021/05/13 02:55:48;;;;;;;5.70;3.42;;;;;;;18.37;33.84;100738.06;4975398;28;20057;-76
2021/05/13 02:58:14;;;;;;;4.82;3.25;;;;;;;18.29;34.20;100744.63;4975245;28;20023;-75
2021/05/13 03:03:28;;;;;;;5.05;3.95;;;;;;;18.45;33.96;100739.00;4973947;28;20046;-76
2021/05/13 03:05:55;;;;;;;8.43;4.20;;;;;;;18.47;34.19;100737.47;4974834;28;20055;-75
2021/05/13 03:08:20;;;;;;;5.53;4.07;;;;;;;18.54;34.10;100740.34;4975263;28;20462;-75
2021/05/13 03:10:46;;;;;;;5.22;4.22;;;;;;;18.64;34.00;100735.38;4974976;28;20034;-77
2021/05/13 03:13:20;;;;;;;6.85;4.78;;;;;;;18.66;34.11;100733.06;4974907;28;20035;-76
2021/05/13 03:15:45;;;;;;;4.70;4.10;;;;;;;18.67;34.27;100731.94;4974993;28;20031;-76
2021/05/13 03:18:11;;;;;;;5.63;4.07;;;;;;;18.68;34.25;100744.59;4974903;28;20439;-75
2021/05/13 03:20:42;;;;;;;4.70;4.05;;;;;;;18.71;34.21;100741.88;4974285;28;20023;-75
2021/05/13 03:23:11;;;;;;;5.18;4.57;;;;;;;18.72;34.31;100751.78;4974826;28;20030;-75
2021/05/13 03:25:39;;;;;;;5.15;4.38;;;;;;;18.69;34.68;100735.13;4974503;28;20031;-76
2021/05/13 03:28:10;;;;;;;6.32;4.57;;;;;;;18.71;34.40;100733.56;4973562;28;20035;-75
2021/05/13 03:30:41;;;;;;;7.22;4.43;;;;;;;18.74;34.40;100743.09;4974695;28;20504;-75
2021/05/13 03:33:08;;;;;;;5.13;4.13;;;;;;;18.71;34.48;100733.56;4974245;28;20088;-77
2021/05/13 03:35:34;;;;;;;5.75;4.00;;;;;;;18.78;34.36;100732.91;4972919;28;20642;-76
2021/05/13 03:38:01;;;;;;;5.85;4.32;;;;;;;18.77;34.23;100736.84;4973806;28;20113;-75
2021/05/13 03:40:31;;;;;;;6.70;5.30;;;;;;;18.79;34.25;100735.31;4974562;28;20038;-75
2021/05/13 03:42:57;;;;;;;6.45;4.22;;;;;;;18.82;34.29;100733.78;4974282;28;20070;-75
2021/05/13 03:45:24;;;;;;;5.50;4.50;;;;;;;18.80;34.21;100730.56;4974355;28;20061;-75
2021/05/13 03:47:49;;;;;;;6.38;4.80;;;;;;;18.79;34.52;100724.22;4974424;28;20026;-75
2021/05/13 03:50:15;;;;;;;5.85;4.45;;;;;;;18.80;34.19;100725.81;4974138;28;20665;-75
2021/05/13 03:52:41;;;;;;;8.18;5.10;;;;;;;18.78;34.56;100728.16;4974276;28;20398;-75
2021/05/13 03:55:07;;;;;;;6.82;5.13;;;;;;;18.75;34.48;100728.91;4973353;28;20042;-75
2021/05/13 03:57:33;;;;;;;5.53;4.78;;;;;;;18.77;34.45;100736.84;4974239;28;20034;-75
2021/05/13 04:00:00;;;;;;;10.02;5.55;;;;;;;18.72;34.55;100737.94;4974175;28;20038;-76
2021/05/13 04:02:34;;;;;;;5.57;4.32;;;;;;;18.72;34.53;100735.16;4972909;28;20031;-75
2021/05/13 04:05:01;;;;;;;4.93;4.43;;;;;;;18.77;34.45;100732.09;4972774;28;20042;-75
2021/05/13 04:07:32;;;;;;;5.32;4.38;;;;;;;18.71;34.46;100739.13;4973824;28;20094;-75
2021/05/13 04:09:58;;;;;;;5.63;4.68;;;;;;;18.74;34.45;100746.69;4974096;28;20026;-75
2021/05/13 04:12:24;;;;;;;6.43;4.55;;;;;;;18.72;34.27;100742.69;4973563;28;20572;-75
2021/05/13 04:14:50;;;;;;;5.18;4.30;;;;;;;18.72;34.43;100745.44;4972771;28;20035;-75
2021/05/13 04:17:16;;;;;;;9.88;5.55;;;;;;;18.58;34.81;100749.50;4973930;28;20516;-76
2021/05/13 04:19:42;;;;;;;7.47;5.22;;;;;;;18.26;35.27;100748.91;4973899;28;20031;-76
2021/05/13 04:22:08;;;;;;;5.22;4.57;;;;;;;18.08;35.57;100746.94;4973912;28;20035;-75
2021/05/13 04:24:33;;;;;;;7.53;4.22;;;;;;;18.00;35.68;100755.09;4973913;28;20110;-75
2021/05/13 04:26:59;;;;;;;6.63;4.68;;;;;;;17.88;35.86;100757.19;4973712;28;20070;-75
2021/05/13 04:29:25;;;;;;;10.65;5.85;;;;;;;17.79;35.82;100753.84;4972555;28;20031;-75
2021/05/13 04:31:50;;;;;;;5.70;4.35;;;;;;;17.88;35.68;100762.72;4973558;28;20118;-75
2021/05/13 04:34:16;;;;;;;7.35;4.30;;;;;;;17.91;35.92;100753.69;4973797;28;20094;-76
2021/05/13 04:36:42;;;;;;;5.70;4.80;;;;;;;17.92;35.71;100753.34;4973444;28;20030;-75
2021/05/13 04:39:07;;;;;;;13.30;5.05;;;;;;;17.91;35.77;100745.38;4973757;28;20513;-75
2021/05/13 04:41:33;;;;;;;8.35;4.70;;;;;;;17.85;35.89;100750.44;4973741;28;20029;-75
2021/05/13 04:44:00;;;;;;;6.28;4.68;;;;;;;17.96;35.80;100751.44;4973734;28;20058;-75
2021/05/13 04:46:28;;;;;;;14.43;6.65;;;;;;;17.86;36.19;100754.00;4973246;28;20034;-76
2021/05/13 04:49:16;;;;;;;10.13;6.40;;;;;;;17.95;36.03;100754.56;4973688;28;20027;-75
2021/05/13 04:51:39;;;;;;;6.50;5.03;;;;;;;17.94;36.23;100748.25;4973558;28;20042;-75
2021/05/13 04:54:05;;;;;;;9.43;4.95;;;;;;;17.90;36.12;100749.31;4973695;28;20060;-75
2021/05/13 04:56:32;;;;;;;11.13;6.10;;;;;;;17.88;36.45;100759.94;4973640;28;20037;-76
2021/05/13 04:58:57;;;;;;;7.55;5.35;;;;;;;18.05;36.11;100755.94;4973226;28;20035;-75
2021/05/13 05:01:23;;;;;;;6.70;4.63;;;;;;;18.00;36.41;100748.78;4972297;28;20034;-75
2021/05/13 05:03:49;;;;;;;16.02;5.28;;;;;;;18.14;36.12;100759.31;4973478;28;20037;-76
2021/05/13 05:06:15;;;;;;;9.23;5.65;;;;;;;18.15;36.30;100753.44;4973400;28;20054;-75
2021/05/13 05:08:42;;;;;;;8.85;4.72;;;;;;;18.29;36.06;100758.44;4973545;28;20366;-75
2021/05/13 05:11:08;;;;;;;7.68;5.10;;;;;;;18.39;36.19;100754.28;4973312;28;20631;-76
2021/05/13 05:13:35;;;;;;;8.75;5.45;;;;;;;18.42;36.09;100767.38;4973502;28;20027;-76
2021/05/13 05:16:01;;;;;;;9.02;5.80;;;;;;;18.45;36.41;100766.66;4973378;28;20035;-76
2021/05/13 05:18:27;;;;;;;10.45;5.82;;;;;;;18.53;36.30;100765.63;4973523;28;20496;-77
2021/05/13 05:20:53;;;;;;;17.58;6.65;;;;;;;18.60;36.39;100767.75;4973348;28;20034;-82
2021/05/13 05:23:19;;;;;;;13.35;7.55;;;;;;;18.70;36.60;100767.97;4972993;28;20062;-76
2021/05/13 05:25:45;;;;;;;13.05;6.30;;;;;;;18.67;36.77;100767.91;4973522;28;20502;-76
2021/05/13 05:28:11;;;;;;;7.10;5.78;;;;;;;18.83;36.54;100758.31;4973271;28;20105;-75
2021/05/13 05:30:38;;;;;;;10.73;6.05;;;;;;;18.81;36.91;100771.72;4973406;28;20077;-76
2021/05/13 05:33:06;;;;;;;8.90;6.05;;;;;;;18.91;36.86;100772.28;4973337;28;20019;-75
2021/05/13 05:35:32;;;;;;;9.77;4.93;;;;;;;19.11;36.85;100765.50;4973351;28;20110;-79
2021/05/13 05:37:58;;;;;;;11.50;7.25;;;;;;;19.16;36.76;100770.75;4973146;28;20023;-76
2021/05/13 05:40:25;;;;;;;11.15;6.05;;;;;;;19.30;36.62;100773.75;4970182;28;20082;-83
2021/05/13 05:42:51;;;;;;;13.13;6.38;;;;;;;19.42;36.76;100772.72;4967128;28;20050;-77
2021/05/13 05:45:20;;;;;;;17.98;7.05;;;;;;;19.40;36.81;100773.09;4967370;28;20031;-76
2021/05/13 05:47:46;;;;;;;18.15;8.85;;;;;;;19.58;36.76;100772.63;4967155;28;20027;-76
2021/05/13 05:50:12;;;;;;;9.23;6.10;;;;;;;19.69;36.61;100776.34;4966772;28;20094;-75
2021/05/13 05:52:38;;;;;;;8.90;6.03;;;;;;;19.77;36.61;100766.16;4966730;28;20114;-77
2021/05/13 05:55:05;;;;;;;8.65;6.05;;;;;;;19.72;36.69;100781.13;4966864;28;20026;-83
2021/05/13 05:57:31;;;;;;;9.90;6.25;;;;;;;19.85;36.48;100776.97;4965329;28;20506;-81
2021/05/13 05:59:58;;;;;;;7.82;5.28;;;;;;;19.83;36.63;100778.53;4967456;28;20023;-76
2021/05/13 06:02:27;;;;;;;11.27;6.28;;;;;;;19.75;36.79;100785.94;4964637;28;20109;-80
2021/05/13 06:04:52;;;;;;;13.82;6.20;;;;;;;19.83;36.63;100784.06;4965746;28;20042;-76
2021/05/13 06:07:19;;;;;;;15.70;6.63;;;;;;;19.91;36.84;100789.34;4965829;28;20110;-77
2021/05/13 06:09:45;;;;;;;9.60;6.63;;;;;;;19.98;36.63;100785.88;4964362;28;20035;-76
2021/05/13 06:12:11;;;;;;;11.52;6.80;;;;;;;20.04;36.79;100791.91;4966181;28;20122;-76
2021/05/13 06:14:37;;;;;;;7.85;6.10;;;;;;;20.05;36.87;100790.72;4965339;28;20509;-75
2021/05/13 06:17:02;;;;;;;23.20;8.35;;;;;;;20.05;36.96;100793.50;4964149;28;20035;-76
2021/05/13 06:19:28;;;;;;;11.32;6.82;;;;;;;20.03;37.30;100790.31;4965029;28;20482;-76
2021/05/13 06:21:54;;;;;;;9.43;6.95;;;;;;;20.19;37.12;100783.38;4965013;28;20027;-75
2021/05/13 06:24:19;;;;;;;7.13;6.22;;;;;;;20.30;36.89;100794.59;4964722;28;20030;-75
2021/05/13 06:26:55;;;;;;;11.88;6.95;;;;;;;20.05;37.85;100785.97;4966140;28;20051;-76
2021/05/13 06:29:21;;;;;;;9.30;6.93;;;;;;;20.31;37.59;100792.63;4964651;28;20535;-75
2021/05/13 06:31:46;;;;;;;8.43;6.63;;;;;;;20.44;37.05;100789.25;4965901;28;20028;-75
2021/05/13 06:34:12;;;;;;;11.07;7.03;;;;;;;20.49;37.11;100791.69;4963358;28;20055;-76
2021/05/13 06:36:41;;;;;;;14.20;9.32;;;;;;;20.44;37.54;100797.56;4964819;28;20031;-75
2021/05/13 06:39:07;;;;;;;20.67;10.77;;;;;;;20.47;37.21;100804.34;4963835;28;20046;-75
2021/05/13 06:41:33;;;;;;;22.45;12.40;;;;;;;20.27;37.71;100805.66;4965043;28;20485;-75
2021/05/13 06:43:59;;;;;;;19.00;11.90;;;;;;;20.35;37.46;100807.34;4965243;28;20059;-75
2021/05/13 06:46:25;;;;;;;21.20;12.07;;;;;;;20.34;37.26;100803.78;4972212;28;20027;-75
2021/05/13 06:48:51;;;;;;;28.38;14.20;;;;;;;20.16;37.46;100811.06;4975515;28;20023;-75
2021/05/13 06:51:18;;;;;;;35.92;13.60;;;;;;;20.22;37.36;100809.56;4975364;28;20026;-74
2021/05/13 06:53:44;;;;;;;22.58;13.55;;;;;;;20.46;36.98;100814.66;4974172;28;20030;-77
2021/05/13 06:56:09;;;;;;;23.75;13.15;;;;;;;20.27;37.52;100825.09;4973975;28;20494;-75
2021/05/13 06:58:35;;;;;;;21.95;13.18;;;;;;;20.50;36.97;100820.25;4975270;28;20069;-76
2021/05/13 07:01:01;;;;;;;19.00;13.25;;;;;;;20.68;36.61;100815.69;4974082;28;20521;-76
2021/05/13 07:03:26;;;;;;;21.60;13.55;;;;;;;20.74;36.92;100821.72;4973791;28;20113;-76
2021/05/13 07:05:53;;;;;;;22.25;14.23;;;;;;;20.55;37.26;100827.44;4972815;28;20130;-76
2021/05/13 07:08:19;;;;;;;27.95;15.15;;;;;;;20.42;37.61;100824.09;4974464;28;20054;-76
2021/05/13 07:10:44;;;;;;;24.88;14.77;;;;;;;20.55;37.73;100835.75;4974366;28;20050;-78
2021/05/13 07:13:10;;;;;;;24.30;16.23;;;;;;;20.52;37.60;100830.97;4974560;28;20026;-77
2021/05/13 07:15:36;;;;;;;17.98;14.35;;;;;;;20.82;37.11;100819.81;4974802;28;20029;-80
2021/05/13 07:18:01;;;;;;;19.85;13.90;;;;;;;20.69;37.35;100825.63;4975099;28;20038;-76
2021/05/13 07:20:28;;;;;;;21.33;15.20;;;;;;;20.71;37.61;100833.59;4974576;28;20027;-78
2021/05/13 07:22:54;;;;;;;22.00;14.18;;;;;;;21.00;37.27;100829.91;4974707;28;20027;-78
2021/05/13 07:25:21;;;;;;;19.48;14.65;;;;;;;20.97;37.27;100827.91;4974445;28;20047;-77
2021/05/13 07:27:47;;;;;;;28.17;14.32;;;;;;;21.11;37.13;100829.22;4974413;28;20031;-76
2021/05/13 07:30:13;;;;;;;18.63;14.27;;;;;;;21.33;36.90;100826.28;4974751;28;20038;-76
2021/05/13 07:32:39;;;;;;;22.02;14.02;;;;;;;21.57;36.54;100824.91;4972317;28;20057;-75
2021/05/13 07:35:06;;;;;;;29.17;16.08;;;;;;;21.41;36.83;100835.50;4973528;28;20058;-76
2021/05/13 07:37:33;;;;;;;23.05;15.75;;;;;;;21.57;36.62;100840.78;4973818;28;20035;-75
2021/05/13 07:39:59;;;;;;;32.72;15.90;;;;;;;21.72;36.57;100836.13;4974458;28;20026;-77
2021/05/13 07:42:25;;;;;;;20.95;14.55;;;;;;;21.78;36.67;100834.59;4974128;28;20081;-75
2021/05/13 07:44:50;;;;;;;25.33;14.93;;;;;;;21.82;36.79;100832.59;4967750;28;20019;-75
2021/05/13 07:47:18;;;;;;;29.00;15.45;;;;;;;21.93;36.45;100833.50;4958137;28;20046;-76
2021/05/13 07:49:44;;;;;;;20.38;14.30;;;;;;;22.00;36.24;100833.53;4962824;28;20118;-77
2021/05/13 07:52:10;;;;;;;20.30;13.15;;;;;;;21.94;36.64;100829.53;4962809;28;20101;-77
2021/05/13 07:54:35;;;;;;;22.88;14.38;;;;;;;22.17;36.29;100842.41;4964584;28;20038;-77
2021/05/13 07:57:01;;;;;;;35.83;15.23;;;;;;;22.23;36.35;100840.84;4962115;28;20503;-76
2021/05/13 07:59:26;;;;;;;18.88;12.45;;;;;;;22.53;36.12;100833.03;4956782;28;20030;-76
2021/05/13 08:01:52;;;;;;;62.60;22.13;;;;;;;22.64;36.07;100831.06;4953504;28;20409;-78
2021/05/13 08:04:18;;;;;;;17.13;12.25;;;;;;;23.14;35.46;100845.16;4936751;28;20646;-74
2021/05/13 08:06:45;;;;;;;14.75;10.95;;;;;;;23.30;35.40;100847.56;4939896;28;20059;-73
2021/05/13 08:09:11;;;;;;;22.13;11.82;;;;;;;23.56;34.70;100851.94;4937114;28;20098;-74
2021/05/13 08:11:36;;;;;;;15.43;10.10;;;;;;;23.66;34.74;100847.59;4953361;28;20026;-74
2021/05/13 08:14:02;;;;;;;19.25;9.82;;;;;;;23.83;34.62;100843.97;4956101;28;20030;-74
2021/05/13 08:16:28;;;;;;;17.02;9.75;;;;;;;24.00;34.34;100845.13;4974185;28;20042;-78
2021/05/13 08:18:53;;;;;;;29.05;11.02;;;;;;;24.10;34.08;100849.88;4977849;28;20030;-78
2021/05/13 08:21:20;;;;;;;10.43;7.43;;;;;;;24.24;33.79;100851.84;4982990;28;20031;-77
2021/05/13 08:23:45;;;;;;;17.25;8.85;;;;;;;24.31;33.82;100847.03;4954919;28;20039;-76
2021/05/13 08:26:11;;;;;;;14.27;8.48;;;;;;;24.30;33.72;100855.81;4955264;28;20057;-75
2021/05/13 08:28:36;;;;;;;10.93;7.85;;;;;;;24.29;33.00;100846.66;4956792;28;20023;-72
2021/05/13 08:31:02;;;;;;;11.88;7.28;;;;;;;24.46;32.54;100852.59;4956328;28;20027;-85
2021/05/13 08:33:28;;;;;;;12.82;8.20;;;;;;;24.50;32.56;100856.19;4959843;28;20034;-85
2021/05/13 08:35:57;;;;;;;23.17;9.60;;;;;;;24.73;32.41;100858.47;4968893;28;20201;-85
2021/05/13 08:38:22;;;;;;;10.48;7.80;;;;;;;24.74;32.59;100858.06;4981482;28;20023;-85
2021/05/13 08:40:48;;;;;;;10.52;7.63;;;;;;;24.73;32.72;100853.69;4978890;28;20161;-89
2021/05/13 08:43:29;;;;;;;13.77;7.72;;;;;;;25.02;31.83;100851.53;4985683;28;20027;-89
2021/05/13 08:45:57;;;;;;;8.32;6.32;;;;;;;25.06;31.90;100855.09;4978140;28;20027;-85
2021/05/13 08:48:28;;;;;;;11.55;6.70;;;;;;;24.82;32.36;100851.22;4974033;28;20029;-88
2021/05/13 08:50:55;;;;;;;9.95;6.38;;;;;;;25.02;31.77;100850.72;4969697;28;20465;-92
2021/05/13 08:53:20;;;;;;;9.93;5.97;;;;;;;25.15;31.93;100854.66;4948633;28;20031;-86
2021/05/13 08:55:46;;;;;;;9.40;6.55;;;;;;;25.21;31.52;100852.22;4954359;28;20091;-95
2021/05/13 08:58:12;;;;;;;10.02;6.93;;;;;;;25.22;32.18;100849.00;4951904;28;20482;-82
2021/05/13 09:00:38;;;;;;;7.90;5.35;;;;;;;25.26;32.15;100849.78;4966882;28;20413;-82
2021/05/13 09:03:04;;;;;;;8.57;6.28;;;;;;;25.38;31.86;100848.47;4979210;28;20018;-84
2021/05/13 09:05:29;;;;;;;11.55;6.57;;;;;;;25.73;31.13;100841.81;4974884;28;20035;-88
2021/05/13 09:07:55;;;;;;;9.90;7.15;;;;;;;25.81;31.36;100848.94;4975177;28;20031;-88
2021/05/13 09:10:23;;;;;;;9.38;6.32;;;;;;;25.57;31.45;100842.34;4980267;28;20102;-90
2021/05/13 09:12:49;;;;;;;7.32;4.55;;;;;;;25.62;31.66;100847.50;4994595;28;20106;-86
2021/05/13 09:15:20;;;;;;;11.25;6.30;;;;;;;25.88;31.17;100853.69;4987461;28;20027;-92
2021/05/13 09:17:57;;;;;;;8.57;4.95;;;;;;;26.07;30.65;100849.47;4974415;28;20027;-86
2021/05/13 09:20:34;;;;;;;8.85;4.28;;;;;;;26.08;30.22;100842.69;4978122;28;20165;-86
2021/05/13 09:23:14;;;;;;;6.68;3.47;;;;;;;26.50;30.06;100842.19;4976749;28;20493;-85
2021/05/13 09:25:42;;;;;;;16.80;5.28;;;;;;;26.50;29.99;100847.00;4977046;28;20023;-86
2021/05/13 09:28:07;;;;;;;8.50;4.15;;;;;;;26.44;30.13;100841.06;4976678;28;20030;-85
2021/05/13 09:30:35;;;;;;;6.93;3.47;;;;;;;26.44;29.63;100849.47;4976702;28;20500;-85
2021/05/13 09:33:02;;;;;;;6.50;4.03;;;;;;;26.36;30.19;100839.53;4976881;28;20517;-86
2021/05/13 09:35:29;;;;;;;7.57;4.10;;;;;;;26.47;29.86;100845.84;4976876;28;20493;-89
2021/05/13 09:38:03;;;;;;;16.10;3.10;;;;;;;26.55;29.64;100844.53;4977980;28;20121;-87
2021/05/13 09:40:38;;;;;;;7.43;3.72;;;;;;;26.66;29.00;100847.19;4977801;28;20486;-86
2021/05/13 09:43:21;;;;;;;8.27;3.53;;;;;;;26.75;28.67;100847.50;4976543;28;20038;-88
2021/05/13 09:45:56;;;;;;;9.95;3.40;;;;;;;26.75;28.56;100844.69;4976178;28;20034;-85
2021/05/13 09:48:56;;;;;;;5.28;2.00;;;;;;;26.58;28.44;100847.72;4977738;28;20058;-85
2021/05/13 09:51:23;;;;;;;;;;;;;;;26.56;28.68;100842.53;4970860;28;20085;-85
2021/05/13 09:54:11;;;;;;;3.60;1.92;;;;;;;26.69;28.13;100845.56;4976459;28;19922;-86
2021/05/13 09:56:49;;;;;;;3.72;2.58;;;;;;;26.70;28.09;100847.16;4975994;28;20042;-85
2021/05/13 09:59:20;;;;;;;3.13;1.77;;;;;;;26.37;27.65;100841.13;4977761;28;20026;-88
2021/05/13 10:01:47;;;;;;;4.75;3.15;;;;;;;26.56;28.47;100848.13;4976205;28;20026;-86
2021/05/13 10:04:13;;;;;;;6.72;2.95;;;;;;;26.54;28.71;100842.94;4976154;28;20509;-88
2021/05/13 10:06:38;;;;;;;3.13;2.20;;;;;;;26.24;29.01;100840.88;4977105;28;20050;-87
2021/05/13 10:09:04;;;;;;;5.32;1.92;;;;;;;26.37;29.21;100840.31;4976651;28;20453;-89
2021/05/13 10:11:31;;;;;;;2.95;1.67;;;;;;;26.55;28.66;100840.94;4976144;28;20033;-88
2021/05/13 10:13:57;;;;;;;4.32;1.80;;;;;;;26.63;28.54;100834.03;4976383;28;20023;-86
2021/05/13 10:16:28;;;;;;;4.05;1.92;;;;;;;26.67;28.50;100839.56;4975921;28;20504;-87
2021/05/13 10:19:01;;;;;;;11.00;2.75;;;;;;;26.53;28.83;100835.75;4976365;28;20022;-86
2021/05/13 10:21:30;;;;;;;4.50;1.90;;;;;;;26.49;28.95;100839.81;4976375;28;20023;-89
2021/05/13 10:23:57;;;;;;;5.90;2.17;;;;;;;26.43;28.88;100833.09;4977266;28;20508;-87
2021/05/13 10:26:41;;;;;;;2.40;1.65;;;;;;;26.41;29.34;100835.53;4976002;28;20299;-88
2021/05/13 10:29:21;;;;;;;7.68;2.55;;;;;;;26.53;29.27;100838.56;4975792;28;20027;-87
2021/05/13 10:32:19;;;;;;;5.05;2.60;;;;;;;26.53;28.97;100835.75;4976275;28;20054;-87
2021/05/13 10:35:05;;;;;;;7.15;2.63;;;;;;;26.65;28.92;100834.41;4976214;28;20501;-88
2021/05/13 10:37:37;;;;;;;4.35;2.00;;;;;;;26.86;28.71;100846.53;4976084;28;20030;-86
2021/05/13 10:43:00;;;;;;;7.38;1.98;;;;;;;26.94;27.99;100848.81;4977089;28;20074;-88
2021/05/13 10:45:25;;;;;;;5.22;2.03;;;;;;;26.83;28.22;100854.59;4975728;28;20725;-86
2021/05/13 10:48:27;;;;;;;16.10;3.63;;;;;;;27.06;28.63;100853.88;4976806;28;20058;-85
2021/05/13 10:50:57;;;;;;;8.98;1.92;;;;;;;27.06;28.27;100853.88;4945305;28;20042;-84
2021/05/13 10:53:43;;;;;;;7.18;2.17;;;;;;;27.23;27.62;100857.63;4975612;28;20035;-86
2021/05/13 10:56:16;;;;;;;6.30;1.88;;;;;;;27.44;27.84;100856.50;4975656;28;20043;-85
2021/05/13 10:59:04;;;;;;;6.93;1.92;;;;;;;27.76;27.32;100858.78;4976818;28;20034;-86
2021/05/13 11:01:48;;;;;;;6.07;1.90;;;;;;;28.04;26.98;100851.84;4975708;28;20027;-87
2021/05/13 11:04:22;;;;;;;4.85;1.65;;;;;;;27.64;26.59;100860.16;4976001;28;20111;-88
2021/05/13 11:06:51;;;;;;;5.28;1.65;;;;;;;27.81;26.66;100863.09;4975465;28;20055;-86
2021/05/13 11:09:39;;;;;;;5.20;1.20;;;;;;;27.72;26.36;100863.66;4974588;28;20133;-77
2021/05/13 11:12:14;;;;;;;5.70;1.70;;;;;;;27.80;27.38;100861.50;4975272;28;20109;-76
2021/05/13 11:20:24;;;;;;;3.58;1.13;;;;;;;27.86;27.07;100859.81;4962121;28;20039;-76
2021/05/13 11:23:17;;;;;;;5.50;1.85;;;;;;;27.88;26.93;100868.59;4963979;28;20030;-76
2021/05/13 11:25:50;;;;;;;7.57;1.30;;;;;;;27.72;27.16;100865.66;4954597;28;20038;-77
2021/05/13 11:28:56;;;;;;;2.15;1.10;;;;;;;27.69;26.70;100863.72;4957320;28;20041;-76
2021/05/13 11:31:22;;;;;;;4.93;1.40;;;;;;;28.03;27.04;100863.50;4952666;28;20031;-77
2021/05/13 11:33:53;;;;;;;4.70;2.10;;;;;;;27.91;26.71;100859.31;4958201;28;20636;-76
2021/05/13 11:36:20;;;;;;;2.80;1.50;;;;;;;28.06;26.66;100869.06;4955567;28;20042;-76
2021/05/13 11:38:51;;;;;;;10.07;2.03;;;;;;;27.86;26.73;100871.03;4956434;28;20173;-76
2021/05/13 11:41:17;;;;;;;4.35;1.30;;;;;;;27.90;26.94;100860.53;4958038;28;20039;-76
2021/05/13 11:43:43;;;;;;;3.25;1.08;;;;;;;28.22;26.71;100870.38;4958195;28;20501;-76
2021/05/13 11:46:10;;;;;;;5.55;1.70;;;;;;;28.40;26.98;100866.00;4957321;28;20035;-76
2021/05/13 11:48:39;;;;;;;4.97;1.45;;;;;;;28.30;27.24;100872.63;4958733;28;20046;-76